sensor_id;sensor_type;location;lat;lon;timestamp;P1;durP1;ratioP1;P2;durP2;ratioP2
12593;SDS011;6362;50.208;9.182;2022-07-22T00:01:21;7.65;;;6.00;;
12593;SDS011;6362;50.208;9.182;2022-07-22T00:03:46;8.13;;;5.82;;
12593;SDS011;6362;50.208;9.182;2022-07-22T00:06:12;8.13;;;5.45;;
12593;SDS011;6362;50.208;9.182;2022-07-22T00:08:37;8.65;;;6.22;;
12593;SDS011;6362;50.208;9.182;2022-07-22T00:11:03;9.13;;;6.45;;
12593;SDS011;6362;50.208;9.182;2022-07-22T00:13:30;8.35;;;5.80;;
12593;SDS011;6362;50.208;9.182;2022-07-22T00:15:55;9.95;;;6.70;;
12593;SDS011;6362;50.208;9.182;2022-07-22T00:18:21;9.68;;;6.70;;
12593;SDS011;6362;50.208;9.182;2022-07-22T00:20:47;8.48;;;5.63;;
12593;SDS011;6362;50.208;9.182;2022-07-22T00:23:12;8.07;;;6.18;;
12593;SDS011;6362;50.208;9.182;2022-07-22T00:25:38;9.77;;;6.32;;
12593;SDS011;6362;50.208;9.182;2022-07-22T00:28:03;9.32;;;5.88;;
12593;SDS011;6362;50.208;9.182;2022-07-22T00:30:29;8.40;;;6.03;;
12593;SDS011;6362;50.208;9.182;2022-07-22T00:32:54;10.15;;;5.80;;
12593;SDS011;6362;50.208;9.182;2022-07-22T00:35:20;9.07;;;6.10;;
12593;SDS011;6362;50.208;9.182;2022-07-22T00:37:46;8.77;;;6.15;;
12593;SDS011;6362;50.208;9.182;2022-07-22T00:40:11;8.20;;;5.65;;
12593;SDS011;6362;50.208;9.182;2022-07-22T00:42:37;8.30;;;5.63;;
12593;SDS011;6362;50.208;9.182;2022-07-22T00:45:03;9.07;;;6.28;;
12593;SDS011;6362;50.208;9.182;2022-07-22T00:47:29;7.88;;;5.60;;
12593;SDS011;6362;50.208;9.182;2022-07-22T00:49:54;10.27;;;5.90;;
12593;SDS011;6362;50.208;9.182;2022-07-22T00:52:20;10.18;;;5.68;;
12593;SDS011;6362;50.208;9.182;2022-07-22T00:54:47;7.30;;;5.88;;
12593;SDS011;6362;50.208;9.182;2022-07-22T00:57:12;9.75;;;6.05;;
12593;SDS011;6362;50.208;9.182;2022-07-22T00:59:38;7.45;;;5.28;;
12593;SDS011;6362;50.208;9.182;2022-07-22T01:02:04;8.48;;;5.95;;
12593;SDS011;6362;50.208;9.182;2022-07-22T01:04:30;9.15;;;6.13;;
12593;SDS011;6362;50.208;9.182;2022-07-22T01:06:55;7.88;;;5.10;;
12593;SDS011;6362;50.208;9.182;2022-07-22T01:09:21;8.27;;;5.65;;
12593;SDS011;6362;50.208;9.182;2022-07-22T01:11:47;8.15;;;5.43;;
12593;SDS011;6362;50.208;9.182;2022-07-22T01:14:13;7.88;;;5.65;;
12593;SDS011;6362;50.208;9.182;2022-07-22T01:16:38;9.15;;;5.47;;
12593;SDS011;6362;50.208;9.182;2022-07-22T01:19:04;8.45;;;6.15;;
12593;SDS011;6362;50.208;9.182;2022-07-22T01:21:30;7.53;;;5.47;;
12593;SDS011;6362;50.208;9.182;2022-07-22T01:23:57;8.35;;;5.68;;
12593;SDS011;6362;50.208;9.182;2022-07-22T01:26:23;7.97;;;5.80;;
12593;SDS011;6362;50.208;9.182;2022-07-22T01:28:49;7.85;;;5.57;;
12593;SDS011;6362;50.208;9.182;2022-07-22T01:31:15;8.98;;;5.95;;
12593;SDS011;6362;50.208;9.182;2022-07-22T01:33:41;7.18;;;5.60;;
12593;SDS011;6362;50.208;9.182;2022-07-22T01:36:07;7.68;;;5.65;;
12593;SDS011;6362;50.208;9.182;2022-07-22T01:38:33;9.63;;;5.60;;
12593;SDS011;6362;50.208;9.182;2022-07-22T01:40:59;8.07;;;5.43;;
12593;SDS011;6362;50.208;9.182;2022-07-22T01:43:25;8.10;;;5.50;;
12593;SDS011;6362;50.208;9.182;2022-07-22T01:45:51;10.93;;;5.70;;
12593;SDS011;6362;50.208;9.182;2022-07-22T01:48:18;8.35;;;5.53;;
12593;SDS011;6362;50.208;9.182;2022-07-22T01:50:44;8.13;;;5.22;;
12593;SDS011;6362;50.208;9.182;2022-07-22T01:53:10;9.63;;;5.78;;
12593;SDS011;6362;50.208;9.182;2022-07-22T01:55:35;7.97;;;5.53;;
12593;SDS011;6362;50.208;9.182;2022-07-22T01:58:01;7.88;;;5.55;;
12593;SDS011;6362;50.208;9.182;2022-07-22T02:00:28;7.95;;;5.70;;
12593;SDS011;6362;50.208;9.182;2022-07-22T02:02:53;8.20;;;5.93;;
12593;SDS011;6362;50.208;9.182;2022-07-22T02:05:19;7.68;;;5.78;;
12593;SDS011;6362;50.208;9.182;2022-07-22T02:07:44;9.93;;;6.63;;
12593;SDS011;6362;50.208;9.182;2022-07-22T02:10:10;8.15;;;5.82;;
12593;SDS011;6362;50.208;9.182;2022-07-22T02:12:36;11.25;;;7.25;;
12593;SDS011;6362;50.208;9.182;2022-07-22T02:15:01;10.95;;;7.97;;
12593;SDS011;6362;50.208;9.182;2022-07-22T02:17:27;11.35;;;7.03;;
12593;SDS011;6362;50.208;9.182;2022-07-22T02:19:53;7.68;;;6.32;;
12593;SDS011;6362;50.208;9.182;2022-07-22T02:22:18;10.75;;;6.93;;
12593;SDS011;6362;50.208;9.182;2022-07-22T02:24:44;8.65;;;6.82;;
12593;SDS011;6362;50.208;9.182;2022-07-22T02:27:10;9.02;;;6.50;;
12593;SDS011;6362;50.208;9.182;2022-07-22T02:29:36;9.60;;;6.55;;
12593;SDS011;6362;50.208;9.182;2022-07-22T02:32:02;7.65;;;5.78;;
12593;SDS011;6362;50.208;9.182;2022-07-22T02:34:27;7.88;;;5.78;;
12593;SDS011;6362;50.208;9.182;2022-07-22T02:36:53;9.07;;;5.63;;
12593;SDS011;6362;50.208;9.182;2022-07-22T02:39:18;10.00;;;6.53;;
12593;SDS011;6362;50.208;9.182;2022-07-22T02:41:44;10.38;;;7.25;;
12593;SDS011;6362;50.208;9.182;2022-07-22T02:44:09;12.73;;;7.38;;
12593;SDS011;6362;50.208;9.182;2022-07-22T02:46:35;8.30;;;6.82;;
12593;SDS011;6362;50.208;9.182;2022-07-22T02:49:01;8.73;;;6.45;;
12593;SDS011;6362;50.208;9.182;2022-07-22T02:51:27;10.88;;;7.22;;
12593;SDS011;6362;50.208;9.182;2022-07-22T02:53:53;9.73;;;7.00;;
12593;SDS011;6362;50.208;9.182;2022-07-22T02:56:18;8.55;;;6.13;;
12593;SDS011;6362;50.208;9.182;2022-07-22T02:58:45;8.48;;;6.35;;
12593;SDS011;6362;50.208;9.182;2022-07-22T03:01:11;10.40;;;5.68;;
12593;SDS011;6362;50.208;9.182;2022-07-22T03:03:37;12.13;;;7.95;;
12593;SDS011;6362;50.208;9.182;2022-07-22T03:06:02;9.48;;;6.88;;
12593;SDS011;6362;50.208;9.182;2022-07-22T03:08:28;8.07;;;6.57;;
12593;SDS011;6362;50.208;9.182;2022-07-22T03:10:53;9.00;;;6.80;;
12593;SDS011;6362;50.208;9.182;2022-07-22T03:13:19;10.73;;;7.07;;
12593;SDS011;6362;50.208;9.182;2022-07-22T03:15:45;10.48;;;6.70;;
12593;SDS011;6362;50.208;9.182;2022-07-22T03:18:10;12.43;;;6.72;;
12593;SDS011;6362;50.208;9.182;2022-07-22T03:20:36;9.75;;;6.63;;
12593;SDS011;6362;50.208;9.182;2022-07-22T03:23:02;10.98;;;6.57;;
12593;SDS011;6362;50.208;9.182;2022-07-22T03:25:28;8.27;;;6.00;;
12593;SDS011;6362;50.208;9.182;2022-07-22T03:27:55;10.63;;;5.93;;
12593;SDS011;6362;50.208;9.182;2022-07-22T03:30:21;8.75;;;6.82;;
12593;SDS011;6362;50.208;9.182;2022-07-22T03:32:46;9.35;;;6.47;;
12593;SDS011;6362;50.208;9.182;2022-07-22T03:35:13;7.50;;;5.93;;
12593;SDS011;6362;50.208;9.182;2022-07-22T03:37:39;8.13;;;6.25;;
12593;SDS011;6362;50.208;9.182;2022-07-22T03:40:05;8.60;;;6.47;;
12593;SDS011;6362;50.208;9.182;2022-07-22T03:42:31;9.40;;;6.53;;
12593;SDS011;6362;50.208;9.182;2022-07-22T03:44:57;8.73;;;6.82;;
12593;SDS011;6362;50.208;9.182;2022-07-22T03:47:23;10.20;;;7.35;;
12593;SDS011;6362;50.208;9.182;2022-07-22T03:49:48;9.18;;;6.53;;
12593;SDS011;6362;50.208;9.182;2022-07-22T03:52:15;10.32;;;6.72;;
12593;SDS011;6362;50.208;9.182;2022-07-22T03:54:41;9.15;;;6.35;;
12593;SDS011;6362;50.208;9.182;2022-07-22T03:57:07;11.38;;;6.45;;
12593;SDS011;6362;50.208;9.182;2022-07-22T03:59:33;10.23;;;7.00;;
12593;SDS011;6362;50.208;9.182;2022-07-22T04:01:59;8.60;;;6.40;;
12593;SDS011;6362;50.208;9.182;2022-07-22T04:04:24;11.30;;;7.18;;
12593;SDS011;6362;50.208;9.182;2022-07-22T04:06:50;10.13;;;6.90;;
12593;SDS011;6362;50.208;9.182;2022-07-22T04:09:16;9.68;;;6.25;;
12593;SDS011;6362;50.208;9.182;2022-07-22T04:11:42;10.20;;;6.05;;
12593;SDS011;6362;50.208;9.182;2022-07-22T04:14:08;9.40;;;6.63;;
12593;SDS011;6362;50.208;9.182;2022-07-22T04:16:33;7.15;;;5.50;;
12593;SDS011;6362;50.208;9.182;2022-07-22T04:19:00;9.32;;;6.43;;
12593;SDS011;6362;50.208;9.182;2022-07-22T04:21:26;9.75;;;6.55;;
12593;SDS011;6362;50.208;9.182;2022-07-22T04:23:52;9.00;;;6.90;;
12593;SDS011;6362;50.208;9.182;2022-07-22T04:26:18;8.30;;;6.03;;
12593;SDS011;6362;50.208;9.182;2022-07-22T04:28:44;10.20;;;5.80;;
12593;SDS011;6362;50.208;9.182;2022-07-22T04:31:09;7.90;;;5.90;;
12593;SDS011;6362;50.208;9.182;2022-07-22T04:33:35;7.45;;;5.97;;
12593;SDS011;6362;50.208;9.182;2022-07-22T04:36:00;9.85;;;6.80;;
12593;SDS011;6362;50.208;9.182;2022-07-22T04:38:26;9.07;;;6.40;;
12593;SDS011;6362;50.208;9.182;2022-07-22T04:40:51;7.75;;;6.28;;
12593;SDS011;6362;50.208;9.182;2022-07-22T04:46:39;7.68;;;6.13;;
12593;SDS011;6362;50.208;9.182;2022-07-22T04:49:05;10.35;;;6.25;;
12593;SDS011;6362;50.208;9.182;2022-07-22T04:51:30;9.32;;;6.20;;
12593;SDS011;6362;50.208;9.182;2022-07-22T04:53:55;8.93;;;6.13;;
12593;SDS011;6362;50.208;9.182;2022-07-22T04:56:21;7.45;;;6.07;;
12593;SDS011;6362;50.208;9.182;2022-07-22T04:58:46;9.52;;;6.55;;
12593;SDS011;6362;50.208;9.182;2022-07-22T05:01:12;8.13;;;6.47;;
12593;SDS011;6362;50.208;9.182;2022-07-22T05:03:39;8.95;;;6.53;;
12593;SDS011;6362;50.208;9.182;2022-07-22T05:06:05;8.20;;;6.22;;
12593;SDS011;6362;50.208;9.182;2022-07-22T05:08:31;11.93;;;6.90;;
12593;SDS011;6362;50.208;9.182;2022-07-22T05:10:57;10.98;;;5.90;;
12593;SDS011;6362;50.208;9.182;2022-07-22T05:13:22;9.27;;;6.05;;
12593;SDS011;6362;50.208;9.182;2022-07-22T05:15:48;13.73;;;7.65;;
12593;SDS011;6362;50.208;9.182;2022-07-22T05:18:14;9.65;;;7.10;;
12593;SDS011;6362;50.208;9.182;2022-07-22T05:20:39;12.57;;;7.07;;
12593;SDS011;6362;50.208;9.182;2022-07-22T05:23:05;11.73;;;6.50;;
12593;SDS011;6362;50.208;9.182;2022-07-22T05:25:31;9.07;;;6.43;;
12593;SDS011;6362;50.208;9.182;2022-07-22T05:27:57;10.07;;;6.90;;
12593;SDS011;6362;50.208;9.182;2022-07-22T05:30:22;8.02;;;6.38;;
12593;SDS011;6362;50.208;9.182;2022-07-22T05:32:48;12.00;;;7.53;;
12593;SDS011;6362;50.208;9.182;2022-07-22T05:35:13;14.32;;;7.47;;
12593;SDS011;6362;50.208;9.182;2022-07-22T05:37:39;9.57;;;6.80;;
12593;SDS011;6362;50.208;9.182;2022-07-22T05:40:05;11.45;;;7.53;;
12593;SDS011;6362;50.208;9.182;2022-07-22T05:42:31;10.50;;;7.47;;
12593;SDS011;6362;50.208;9.182;2022-07-22T05:44:57;11.25;;;6.82;;
12593;SDS011;6362;50.208;9.182;2022-07-22T05:47:22;10.93;;;7.20;;
12593;SDS011;6362;50.208;9.182;2022-07-22T05:49:47;10.02;;;6.22;;
12593;SDS011;6362;50.208;9.182;2022-07-22T05:52:13;10.10;;;6.32;;
12593;SDS011;6362;50.208;9.182;2022-07-22T05:54:38;8.68;;;6.32;;
12593;SDS011;6362;50.208;9.182;2022-07-22T05:57:05;11.18;;;7.05;;
12593;SDS011;6362;50.208;9.182;2022-07-22T05:59:33;11.57;;;6.10;;
12593;SDS011;6362;50.208;9.182;2022-07-22T06:01:59;9.88;;;6.88;;
12593;SDS011;6362;50.208;9.182;2022-07-22T06:04:24;14.52;;;8.65;;
12593;SDS011;6362;50.208;9.182;2022-07-22T06:06:50;11.02;;;7.07;;
12593;SDS011;6362;50.208;9.182;2022-07-22T06:09:15;10.10;;;5.97;;
12593;SDS011;6362;50.208;9.182;2022-07-22T06:11:41;8.40;;;6.53;;
12593;SDS011;6362;50.208;9.182;2022-07-22T06:14:06;12.38;;;6.80;;
12593;SDS011;6362;50.208;9.182;2022-07-22T06:16:32;9.65;;;6.70;;
12593;SDS011;6362;50.208;9.182;2022-07-22T06:18:59;10.52;;;6.72;;
12593;SDS011;6362;50.208;9.182;2022-07-22T06:21:24;8.65;;;6.22;;
12593;SDS011;6362;50.208;9.182;2022-07-22T06:23:51;10.60;;;7.13;;
12593;SDS011;6362;50.208;9.182;2022-07-22T06:26:17;11.82;;;7.90;;
12593;SDS011;6362;50.208;9.182;2022-07-22T06:28:43;7.70;;;5.68;;
12593;SDS011;6362;50.208;9.182;2022-07-22T06:31:08;11.00;;;7.28;;
12593;SDS011;6362;50.208;9.182;2022-07-22T06:33:34;6.90;;;5.53;;
12593;SDS011;6362;50.208;9.182;2022-07-22T06:36:00;10.80;;;5.88;;
12593;SDS011;6362;50.208;9.182;2022-07-22T06:38:25;8.73;;;5.20;;
12593;SDS011;6362;50.208;9.182;2022-07-22T06:40:51;7.63;;;4.40;;
12593;SDS011;6362;50.208;9.182;2022-07-22T06:43:16;7.90;;;3.78;;
12593;SDS011;6362;50.208;9.182;2022-07-22T06:45:42;11.25;;;4.63;;
12593;SDS011;6362;50.208;9.182;2022-07-22T06:48:07;6.60;;;4.40;;
12593;SDS011;6362;50.208;9.182;2022-07-22T06:50:33;8.75;;;4.47;;
12593;SDS011;6362;50.208;9.182;2022-07-22T06:52:58;8.18;;;4.53;;
12593;SDS011;6362;50.208;9.182;2022-07-22T06:55:24;6.57;;;3.60;;
12593;SDS011;6362;50.208;9.182;2022-07-22T06:57:49;4.75;;;3.92;;
12593;SDS011;6362;50.208;9.182;2022-07-22T07:00:15;6.28;;;3.78;;
12593;SDS011;6362;50.208;9.182;2022-07-22T07:02:41;5.80;;;4.13;;
12593;SDS011;6362;50.208;9.182;2022-07-22T07:05:07;4.75;;;3.33;;
12593;SDS011;6362;50.208;9.182;2022-07-22T07:07:32;5.68;;;3.42;;
12593;SDS011;6362;50.208;9.182;2022-07-22T07:09:58;6.25;;;3.95;;
12593;SDS011;6362;50.208;9.182;2022-07-22T07:12:23;7.88;;;3.88;;
12593;SDS011;6362;50.208;9.182;2022-07-22T07:14:49;5.57;;;3.70;;
12593;SDS011;6362;50.208;9.182;2022-07-22T07:17:14;5.03;;;3.50;;
12593;SDS011;6362;50.208;9.182;2022-07-22T07:19:40;6.45;;;4.03;;
12593;SDS011;6362;50.208;9.182;2022-07-22T07:22:06;6.10;;;4.15;;
12593;SDS011;6362;50.208;9.182;2022-07-22T07:24:32;6.22;;;4.30;;
12593;SDS011;6362;50.208;9.182;2022-07-22T07:26:57;6.50;;;4.10;;
12593;SDS011;6362;50.208;9.182;2022-07-22T07:29:23;5.20;;;4.20;;
12593;SDS011;6362;50.208;9.182;2022-07-22T07:31:48;5.80;;;3.95;;
12593;SDS011;6362;50.208;9.182;2022-07-22T07:34:14;5.38;;;4.30;;
12593;SDS011;6362;50.208;9.182;2022-07-22T07:36:40;4.95;;;3.80;;
12593;SDS011;6362;50.208;9.182;2022-07-22T07:39:06;6.10;;;3.83;;
12593;SDS011;6362;50.208;9.182;2022-07-22T07:41:31;5.28;;;3.80;;
12593;SDS011;6362;50.208;9.182;2022-07-22T07:46:24;5.50;;;4.05;;
12593;SDS011;6362;50.208;9.182;2022-07-22T07:48:50;4.38;;;3.45;;
12593;SDS011;6362;50.208;9.182;2022-07-22T07:51:16;5.13;;;3.00;;
12593;SDS011;6362;50.208;9.182;2022-07-22T07:53:41;4.85;;;3.55;;
12593;SDS011;6362;50.208;9.182;2022-07-22T07:56:07;5.63;;;3.80;;
12593;SDS011;6362;50.208;9.182;2022-07-22T07:58:32;7.00;;;3.60;;
12593;SDS011;6362;50.208;9.182;2022-07-22T08:00:58;9.43;;;3.58;;
12593;SDS011;6362;50.208;9.182;2022-07-22T08:03:23;5.70;;;3.88;;
12593;SDS011;6362;50.208;9.182;2022-07-22T08:05:49;7.70;;;4.78;;
12593;SDS011;6362;50.208;9.182;2022-07-22T08:08:14;6.40;;;3.35;;
12593;SDS011;6362;50.208;9.182;2022-07-22T08:10:40;7.45;;;3.80;;
12593;SDS011;6362;50.208;9.182;2022-07-22T08:13:05;5.13;;;3.42;;
12593;SDS011;6362;50.208;9.182;2022-07-22T08:15:31;7.20;;;3.72;;
12593;SDS011;6362;50.208;9.182;2022-07-22T08:17:57;4.88;;;3.90;;
12593;SDS011;6362;50.208;9.182;2022-07-22T08:20:25;4.60;;;3.50;;
12593;SDS011;6362;50.208;9.182;2022-07-22T08:22:52;6.95;;;3.78;;
12593;SDS011;6362;50.208;9.182;2022-07-22T08:25:18;8.50;;;4.10;;
12593;SDS011;6362;50.208;9.182;2022-07-22T08:27:44;7.05;;;4.03;;
12593;SDS011;6362;50.208;9.182;2022-07-22T08:30:10;4.72;;;3.55;;
12593;SDS011;6362;50.208;9.182;2022-07-22T08:32:35;6.97;;;3.53;;
12593;SDS011;6362;50.208;9.182;2022-07-22T08:35:02;6.35;;;4.03;;
12593;SDS011;6362;50.208;9.182;2022-07-22T08:37:28;4.53;;;3.53;;
12593;SDS011;6362;50.208;9.182;2022-07-22T08:39:54;5.13;;;3.20;;
12593;SDS011;6362;50.208;9.182;2022-07-22T08:42:21;4.13;;;2.75;;
12593;SDS011;6362;50.208;9.182;2022-07-22T08:44:47;6.45;;;3.47;;
12593;SDS011;6362;50.208;9.182;2022-07-22T08:47:13;3.88;;;2.83;;
12593;SDS011;6362;50.208;9.182;2022-07-22T08:49:39;5.70;;;3.60;;
12593;SDS011;6362;50.208;9.182;2022-07-22T08:52:05;4.75;;;3.20;;
12593;SDS011;6362;50.208;9.182;2022-07-22T08:54:31;4.47;;;2.97;;
12593;SDS011;6362;50.208;9.182;2022-07-22T08:56:56;4.10;;;3.10;;
12593;SDS011;6362;50.208;9.182;2022-07-22T08:59:22;4.90;;;3.53;;
12593;SDS011;6362;50.208;9.182;2022-07-22T09:02:00;4.40;;;3.45;;
12593;SDS011;6362;50.208;9.182;2022-07-22T09:04:49;4.97;;;3.00;;
12593;SDS011;6362;50.208;9.182;2022-07-22T09:07:36;5.25;;;3.15;;
12593;SDS011;6362;50.208;9.182;2022-07-22T09:10:07;6.90;;;4.20;;
12593;SDS011;6362;50.208;9.182;2022-07-22T09:15:39;5.88;;;3.38;;
12593;SDS011;6362;50.208;9.182;2022-07-22T09:18:12;3.38;;;2.95;;
12593;SDS011;6362;50.208;9.182;2022-07-22T09:20:37;3.72;;;2.95;;
12593;SDS011;6362;50.208;9.182;2022-07-22T09:23:11;4.85;;;3.00;;
12593;SDS011;6362;50.208;9.182;2022-07-22T09:25:38;4.22;;;2.83;;
12593;SDS011;6362;50.208;9.182;2022-07-22T09:30:32;5.57;;;3.47;;
12593;SDS011;6362;50.208;9.182;2022-07-22T09:32:59;7.45;;;3.80;;
12593;SDS011;6362;50.208;9.182;2022-07-22T09:35:25;5.30;;;3.03;;
12593;SDS011;6362;50.208;9.182;2022-07-22T09:42:58;5.30;;;3.22;;
12593;SDS011;6362;50.208;9.182;2022-07-22T09:45:25;4.85;;;3.17;;
12593;SDS011;6362;50.208;9.182;2022-07-22T09:47:53;4.25;;;2.88;;
12593;SDS011;6362;50.208;9.182;2022-07-22T09:50:32;4.07;;;2.63;;
12593;SDS011;6362;50.208;9.182;2022-07-22T09:52:59;6.03;;;3.13;;
12593;SDS011;6362;50.208;9.182;2022-07-22T09:55:26;6.40;;;2.92;;
12593;SDS011;6362;50.208;9.182;2022-07-22T09:57:53;6.32;;;3.40;;
12593;SDS011;6362;50.208;9.182;2022-07-22T10:00:22;3.33;;;2.63;;
12593;SDS011;6362;50.208;9.182;2022-07-22T10:05:15;4.15;;;2.95;;
12593;SDS011;6362;50.208;9.182;2022-07-22T10:07:43;6.60;;;3.70;;
12593;SDS011;6362;50.208;9.182;2022-07-22T10:10:11;4.75;;;3.33;;
12593;SDS011;6362;50.208;9.182;2022-07-22T10:12:38;3.97;;;3.30;;
12593;SDS011;6362;50.208;9.182;2022-07-22T10:15:05;4.30;;;3.13;;
12593;SDS011;6362;50.208;9.182;2022-07-22T10:17:33;4.53;;;3.33;;
12593;SDS011;6362;50.208;9.182;2022-07-22T10:20:02;6.22;;;2.92;;
12593;SDS011;6362;50.208;9.182;2022-07-22T10:25:13;4.05;;;2.78;;
12593;SDS011;6362;50.208;9.182;2022-07-22T10:30:10;4.13;;;2.70;;
12593;SDS011;6362;50.208;9.182;2022-07-22T10:32:37;3.95;;;2.70;;
12593;SDS011;6362;50.208;9.182;2022-07-22T10:40:10;3.50;;;2.47;;
12593;SDS011;6362;50.208;9.182;2022-07-22T10:43:03;3.78;;;3.00;;
12593;SDS011;6362;50.208;9.182;2022-07-22T10:45:31;4.38;;;2.72;;
12593;SDS011;6362;50.208;9.182;2022-07-22T10:47:59;4.70;;;2.75;;
12593;SDS011;6362;50.208;9.182;2022-07-22T10:53:22;4.38;;;2.60;;
12593;SDS011;6362;50.208;9.182;2022-07-22T10:59:10;8.63;;;3.05;;
12593;SDS011;6362;50.208;9.182;2022-07-22T11:01:38;4.15;;;2.70;;
12593;SDS011;6362;50.208;9.182;2022-07-22T11:06:34;6.13;;;3.13;;
12593;SDS011;6362;50.208;9.182;2022-07-22T11:09:02;4.18;;;3.28;;
12593;SDS011;6362;50.208;9.182;2022-07-22T11:16:42;3.92;;;2.85;;
12593;SDS011;6362;50.208;9.182;2022-07-22T11:19:08;7.10;;;2.80;;
12593;SDS011;6362;50.208;9.182;2022-07-22T11:21:34;3.85;;;2.90;;
12593;SDS011;6362;50.208;9.182;2022-07-22T11:24:01;4.15;;;2.92;;
12593;SDS011;6362;50.208;9.182;2022-07-22T11:29:09;5.28;;;3.25;;
12593;SDS011;6362;50.208;9.182;2022-07-22T11:31:36;4.00;;;2.70;;
12593;SDS011;6362;50.208;9.182;2022-07-22T11:34:13;4.75;;;3.13;;
12593;SDS011;6362;50.208;9.182;2022-07-22T11:36:41;5.35;;;3.10;;
12593;SDS011;6362;50.208;9.182;2022-07-22T11:39:09;4.38;;;2.70;;
12593;SDS011;6362;50.208;9.182;2022-07-22T11:41:36;3.85;;;2.50;;
12593;SDS011;6362;50.208;9.182;2022-07-22T11:44:02;4.05;;;2.67;;
12593;SDS011;6362;50.208;9.182;2022-07-22T11:46:29;4.13;;;2.70;;
12593;SDS011;6362;50.208;9.182;2022-07-22T11:49:04;5.22;;;3.22;;
12593;SDS011;6362;50.208;9.182;2022-07-22T11:51:30;3.92;;;3.00;;
12593;SDS011;6362;50.208;9.182;2022-07-22T11:53:58;4.60;;;3.15;;
12593;SDS011;6362;50.208;9.182;2022-07-22T11:56:24;6.38;;;2.95;;
12593;SDS011;6362;50.208;9.182;2022-07-22T11:58:51;3.80;;;2.75;;
12593;SDS011;6362;50.208;9.182;2022-07-22T12:01:24;4.50;;;3.50;;
12593;SDS011;6362;50.208;9.182;2022-07-22T12:03:57;6.22;;;3.08;;
12593;SDS011;6362;50.208;9.182;2022-07-22T12:06:24;3.83;;;3.22;;
12593;SDS011;6362;50.208;9.182;2022-07-22T12:08:56;4.32;;;3.05;;
12593;SDS011;6362;50.208;9.182;2022-07-22T12:11:28;5.20;;;2.95;;
12593;SDS011;6362;50.208;9.182;2022-07-22T12:13:54;4.05;;;2.83;;
12593;SDS011;6362;50.208;9.182;2022-07-22T12:16:21;4.32;;;2.78;;
12593;SDS011;6362;50.208;9.182;2022-07-22T12:21:32;4.88;;;2.80;;
12593;SDS011;6362;50.208;9.182;2022-07-22T12:24:03;4.90;;;3.28;;
12593;SDS011;6362;50.208;9.182;2022-07-22T12:26:46;6.70;;;2.67;;
12593;SDS011;6362;50.208;9.182;2022-07-22T12:29:14;5.65;;;3.28;;
12593;SDS011;6362;50.208;9.182;2022-07-22T12:31:51;5.75;;;2.78;;
12593;SDS011;6362;50.208;9.182;2022-07-22T12:37:11;4.15;;;3.10;;
12593;SDS011;6362;50.208;9.182;2022-07-22T12:42:34;4.22;;;3.20;;
12593;SDS011;6362;50.208;9.182;2022-07-22T12:45:06;5.60;;;3.20;;
12593;SDS011;6362;50.208;9.182;2022-07-22T12:47:51;3.90;;;2.88;;
12593;SDS011;6362;50.208;9.182;2022-07-22T12:53:05;5.63;;;3.17;;
12593;SDS011;6362;50.208;9.182;2022-07-22T12:55:32;3.47;;;2.92;;
12593;SDS011;6362;50.208;9.182;2022-07-22T12:58:00;4.13;;;3.00;;
12593;SDS011;6362;50.208;9.182;2022-07-22T13:00:27;4.75;;;3.35;;
12593;SDS011;6362;50.208;9.182;2022-07-22T13:02:55;5.93;;;3.42;;
12593;SDS011;6362;50.208;9.182;2022-07-22T13:05:21;8.43;;;3.40;;
12593;SDS011;6362;50.208;9.182;2022-07-22T13:07:47;3.83;;;2.92;;
12593;SDS011;6362;50.208;9.182;2022-07-22T13:10:13;3.72;;;2.85;;
12593;SDS011;6362;50.208;9.182;2022-07-22T13:12:40;7.68;;;3.33;;
12593;SDS011;6362;50.208;9.182;2022-07-22T13:15:06;4.15;;;2.85;;
12593;SDS011;6362;50.208;9.182;2022-07-22T13:17:33;5.25;;;2.88;;
12593;SDS011;6362;50.208;9.182;2022-07-22T13:19:59;6.20;;;3.83;;
12593;SDS011;6362;50.208;9.182;2022-07-22T13:22:24;5.82;;;3.78;;
12593;SDS011;6362;50.208;9.182;2022-07-22T13:24:49;6.88;;;3.45;;
12593;SDS011;6362;50.208;9.182;2022-07-22T13:27:15;4.65;;;3.30;;
12593;SDS011;6362;50.208;9.182;2022-07-22T13:29:41;3.78;;;3.05;;
12593;SDS011;6362;50.208;9.182;2022-07-22T13:32:07;5.35;;;3.55;;
12593;SDS011;6362;50.208;9.182;2022-07-22T13:34:32;5.78;;;3.45;;
12593;SDS011;6362;50.208;9.182;2022-07-22T13:36:58;6.72;;;3.67;;
12593;SDS011;6362;50.208;9.182;2022-07-22T13:39:25;4.72;;;3.33;;
12593;SDS011;6362;50.208;9.182;2022-07-22T13:41:50;4.45;;;3.60;;
12593;SDS011;6362;50.208;9.182;2022-07-22T13:44:17;5.00;;;3.63;;
12593;SDS011;6362;50.208;9.182;2022-07-22T13:46:42;6.03;;;3.28;;
12593;SDS011;6362;50.208;9.182;2022-07-22T13:49:08;5.05;;;3.60;;
12593;SDS011;6362;50.208;9.182;2022-07-22T13:51:33;5.18;;;3.25;;
12593;SDS011;6362;50.208;9.182;2022-07-22T13:53:59;5.90;;;3.78;;
12593;SDS011;6362;50.208;9.182;2022-07-22T13:56:24;6.30;;;3.60;;
12593;SDS011;6362;50.208;9.182;2022-07-22T13:58:50;5.57;;;3.60;;
12593;SDS011;6362;50.208;9.182;2022-07-22T14:01:16;4.68;;;3.53;;
12593;SDS011;6362;50.208;9.182;2022-07-22T14:03:41;6.00;;;3.85;;
12593;SDS011;6362;50.208;9.182;2022-07-22T14:06:07;7.85;;;3.80;;
12593;SDS011;6362;50.208;9.182;2022-07-22T14:08:34;7.70;;;4.00;;
12593;SDS011;6362;50.208;9.182;2022-07-22T14:11:00;5.00;;;3.28;;
12593;SDS011;6362;50.208;9.182;2022-07-22T14:13:26;4.55;;;3.78;;
12593;SDS011;6362;50.208;9.182;2022-07-22T14:15:52;5.07;;;3.42;;
12593;SDS011;6362;50.208;9.182;2022-07-22T14:18:17;4.43;;;3.33;;
12593;SDS011;6362;50.208;9.182;2022-07-22T14:20:43;6.00;;;3.47;;
12593;SDS011;6362;50.208;9.182;2022-07-22T14:23:08;5.72;;;3.30;;
12593;SDS011;6362;50.208;9.182;2022-07-22T14:25:38;5.45;;;3.35;;
12593;SDS011;6362;50.208;9.182;2022-07-22T14:28:05;5.10;;;3.30;;
12593;SDS011;6362;50.208;9.182;2022-07-22T14:30:31;5.88;;;3.22;;
12593;SDS011;6362;50.208;9.182;2022-07-22T14:32:58;6.18;;;3.67;;
12593;SDS011;6362;50.208;9.182;2022-07-22T14:35:23;4.72;;;3.20;;
12593;SDS011;6362;50.208;9.182;2022-07-22T14:37:49;5.25;;;3.70;;
12593;SDS011;6362;50.208;9.182;2022-07-22T14:40:14;4.57;;;3.30;;
12593;SDS011;6362;50.208;9.182;2022-07-22T14:42:40;7.10;;;4.00;;
12593;SDS011;6362;50.208;9.182;2022-07-22T14:45:06;5.22;;;3.60;;
12593;SDS011;6362;50.208;9.182;2022-07-22T14:47:34;6.13;;;3.42;;
12593;SDS011;6362;50.208;9.182;2022-07-22T14:50:00;4.47;;;3.25;;
12593;SDS011;6362;50.208;9.182;2022-07-22T14:52:25;4.25;;;3.33;;
12593;SDS011;6362;50.208;9.182;2022-07-22T14:54:51;6.28;;;3.65;;
12593;SDS011;6362;50.208;9.182;2022-07-22T14:57:16;4.40;;;3.30;;
12593;SDS011;6362;50.208;9.182;2022-07-22T14:59:42;6.78;;;4.05;;
12593;SDS011;6362;50.208;9.182;2022-07-22T15:02:07;4.38;;;3.20;;
12593;SDS011;6362;50.208;9.182;2022-07-22T15:04:32;6.32;;;3.35;;
12593;SDS011;6362;50.208;9.182;2022-07-22T15:06:58;5.03;;;3.42;;
12593;SDS011;6362;50.208;9.182;2022-07-22T15:09:23;5.45;;;3.30;;
12593;SDS011;6362;50.208;9.182;2022-07-22T15:11:50;6.05;;;3.63;;
12593;SDS011;6362;50.208;9.182;2022-07-22T15:14:17;5.88;;;3.72;;
12593;SDS011;6362;50.208;9.182;2022-07-22T15:16:43;5.13;;;3.25;;
12593;SDS011;6362;50.208;9.182;2022-07-22T15:19:08;4.97;;;3.50;;
12593;SDS011;6362;50.208;9.182;2022-07-22T15:21:34;4.20;;;3.40;;
12593;SDS011;6362;50.208;9.182;2022-07-22T15:24:00;7.43;;;3.80;;
12593;SDS011;6362;50.208;9.182;2022-07-22T15:26:25;5.63;;;3.65;;
12593;SDS011;6362;50.208;9.182;2022-07-22T15:28:50;6.32;;;3.70;;
12593;SDS011;6362;50.208;9.182;2022-07-22T15:31:18;6.38;;;3.95;;
12593;SDS011;6362;50.208;9.182;2022-07-22T15:33:43;6.47;;;3.53;;
12593;SDS011;6362;50.208;9.182;2022-07-22T15:36:09;6.00;;;3.50;;
12593;SDS011;6362;50.208;9.182;2022-07-22T15:38:35;5.22;;;3.53;;
12593;SDS011;6362;50.208;9.182;2022-07-22T15:41:02;4.50;;;3.40;;
12593;SDS011;6362;50.208;9.182;2022-07-22T15:43:28;6.53;;;3.45;;
12593;SDS011;6362;50.208;9.182;2022-07-22T15:45:53;4.75;;;3.63;;
12593;SDS011;6362;50.208;9.182;2022-07-22T15:48:19;4.85;;;3.35;;
12593;SDS011;6362;50.208;9.182;2022-07-22T15:50:44;5.13;;;3.80;;
12593;SDS011;6362;50.208;9.182;2022-07-22T15:53:10;5.03;;;3.30;;